Pollux Star — HOLT — position and weather

sailwx.info

Track history (hours):
 
Tides and Currents Weather Stations Pressure Air Temp Water Temp Dewpoint Dewpoint Depression Visibility Wind Speed Wind Dir Waves Ship Positions

Pollux Star

Last reported at 2017-Oct-16 09:44 UTC. Time now 2017-Oct-17 08:17 UTC.
Position N 38°50' W 075°05'.

Length 190 m; draft 11.3 m.

Type: Cargo ship. MMSI: 357955000.

Date/timePositionNaut miles runAvg speedWind from/ knotsBaromVisibWave heightAir tempDewpointWater temp
2017-Oct-16 09:44N 38°50' W 075°05'1 6.0
2017-Oct-16 09:30N 38°52' W 075°05'5 9.3
2017-Oct-16 09:01N 38°56' W 075°06'5 9.2
2017-Oct-16 08:31N 39°00' W 075°09'5 9.4
2017-Oct-16 08:00N 39°05' W 075°11'4 8.5
2017-Oct-16 07:30N 39°08' W 075°14'5 9.6
2017-Oct-16 07:00N 39°12' W 075°17'510.7
2017-Oct-16 06:30N 39°17' W 075°21'612.2
2017-Oct-16 06:01N 39°21' W 075°26'611.8
2017-Oct-16 05:30N 39°26' W 075°32'510.3
2017-Oct-16 05:01N 39°31' W 075°33'510.3
2017-Oct-16 04:30N 39°36' W 075°34'5 9.2
2017-Oct-16 04:01N 39°40' W 075°32'510.0
2017-Oct-16 03:30N 39°45' W 075°30'5 9.2
2017-Oct-16 03:00N 39°48' W 075°26'4 8.0
2017-Oct-16 02:30N 39°50' W 075°21'4 7.7
2017-Oct-16 02:01N 39°51' W 075°16'3 6.2
2017-Oct-16 01:31N 39°52' W 075°13'3 6.8
2017-Oct-16 01:01N 39°53' W 075°08'3 5.3
2017-Oct-16 00:31N 39°56' W 075°08'0 0.6
2017-Oct-16 00:00N 39°56' W 075°08'0 0.0
2017-Oct-15 23:30N 39°56' W 075°08'0 0.0
2017-Oct-15 23:00N 39°56' W 075°08'0 0.0
2017-Oct-15 22:30N 39°56' W 075°08'0 0.0
2017-Oct-15 22:00N 39°56' W 075°08'0 0.0
2017-Oct-15 21:30N 39°56' W 075°08'0 0.0
2017-Oct-15 21:00N 39°56' W 075°08'0 0.0
2017-Oct-15 20:30N 39°56' W 075°08'0 0.0
2017-Oct-15 20:00N 39°56' W 075°08'0 0.0
2017-Oct-15 19:30N 39°56' W 075°08'0 0.0
2017-Oct-15 19:00N 39°56' W 075°08'0 0.0
2017-Oct-15 18:30N 39°56' W 075°08'0 0.0
2017-Oct-15 18:00N 39°56' W 075°08'0 0.0
2017-Oct-15 17:27N 39°56' W 075°08'0 0.0
2017-Oct-15 17:00N 39°56' W 075°08'0 0.0
2017-Oct-15 16:30N 39°56' W 075°08'0 0.0
2017-Oct-15 16:00N 39°56' W 075°08'0 0.0
2017-Oct-15 15:30N 39°56' W 075°08'0 0.0
2017-Oct-15 15:00N 39°56' W 075°08'0 0.0
2017-Oct-15 14:00N 39°56' W 075°08'0 0.0
2017-Oct-15 13:30N 39°56' W 075°08'0 0.0
2017-Oct-15 13:00N 39°56' W 075°08'0 0.0
2017-Oct-15 12:30N 39°56' W 075°08'0 0.0
2017-Oct-15 12:00N 39°56' W 075°08'0 0.0
2017-Oct-15 11:30N 39°56' W 075°08'0 0.0
2017-Oct-15 11:00N 39°56' W 075°08'0 0.0
2017-Oct-15 10:30N 39°56' W 075°08'0 0.0
2017-Oct-15 10:00N 39°56' W 075°08'0 0.0
2017-Oct-15 09:30N 39°56' W 075°08'0 0.0
2017-Oct-15 09:00N 39°56' W 075°08'0 0.0
2017-Oct-15 08:30N 39°56' W 075°08'0 0.0
2017-Oct-15 08:00N 39°56' W 075°08'0 0.0
2017-Oct-15 07:30N 39°56' W 075°08'0 0.0
2017-Oct-15 07:00N 39°56' W 075°08'0 0.0
2017-Oct-15 06:30N 39°56' W 075°08'0 0.0
2017-Oct-15 06:00N 39°56' W 075°08'0 0.0
2017-Oct-15 05:30N 39°56' W 075°08'0 0.0
2017-Oct-15 05:00N 39°56' W 075°08'0 0.0
2017-Oct-15 04:30N 39°56' W 075°08'0 0.0
2017-Oct-15 04:00N 39°56' W 075°08'0 0.0
2017-Oct-15 03:30N 39°56' W 075°08'0 0.0
2017-Oct-15 03:00N 39°56' W 075°08'0 0.0
2017-Oct-15 02:30N 39°56' W 075°08'0 0.0
2017-Oct-15 02:00N 39°56' W 075°08'0 0.0
2017-Oct-15 01:30N 39°56' W 075°08'0 0.0
2017-Oct-15 01:00N 39°56' W 075°08'0 0.0
2017-Oct-15 00:30N 39°56' W 075°08'0 0.0
2017-Oct-15 00:00N 39°56' W 075°08'0 0.0
2017-Oct-14 23:30N 39°56' W 075°08'0 0.0
2017-Oct-14 23:00N 39°56' W 075°08'0 0.0
2017-Oct-14 22:30N 39°56' W 075°08'0 0.0
2017-Oct-14 21:59N 39°56' W 075°08'0 0.0
2017-Oct-14 21:29N 39°56' W 075°08'0 0.0
2017-Oct-14 21:00N 39°56' W 075°08'0 0.0
2017-Oct-14 20:30N 39°56' W 075°08'0 0.0
2017-Oct-14 20:00N 39°56' W 075°08'0 0.0
2017-Oct-14 19:30N 39°56' W 075°08'0 0.0
2017-Oct-14 19:00N 39°56' W 075°08'0 0.0
2017-Oct-14 18:30N 39°56' W 075°08'0 0.0
2017-Oct-14 18:00N 39°56' W 075°08'0 0.0
2017-Oct-14 17:30N 39°56' W 075°08'0 0.0
2017-Oct-14 17:00N 39°56' W 075°08'0 0.0
2017-Oct-14 16:29N 39°56' W 075°08'0 0.0
2017-Oct-14 15:59N 39°56' W 075°08'0 0.0
2017-Oct-14 15:29N 39°56' W 075°08'0 0.0
2017-Oct-14 15:00N 39°56' W 075°08'0 0.0
2017-Oct-14 14:30N 39°56' W 075°08'0 0.0
2017-Oct-14 13:56N 39°56' W 075°08'0 0.0
2017-Oct-14 13:30N 39°56' W 075°08'0 0.0
2017-Oct-14 13:00N 39°56' W 075°08'0 0.0
2017-Oct-14 12:29N 39°56' W 075°08'0 0.0
2017-Oct-14 12:00N 39°56' W 075°08'0 0.0
2017-Oct-14 11:29N 39°56' W 075°08'0 0.0
2017-Oct-14 11:00N 39°56' W 075°08'0 0.0
2017-Oct-14 10:30N 39°56' W 075°08'0 0.0
2017-Oct-14 10:00N 39°56' W 075°08'0 0.0
2017-Oct-14 09:29N 39°56' W 075°08'0 0.0
2017-Oct-14 08:59N 39°56' W 075°08'0 0.0
2017-Oct-14 08:29N 39°56' W 075°08'0 0.0
2017-Oct-14 08:00N 39°56' W 075°08'0 0.0
2017-Oct-14 07:29N 39°56' W 075°08'0 0.0
2017-Oct-14 07:00N 39°56' W 075°08'0 0.0
2017-Oct-14 06:29N 39°56' W 075°08'0 0.0
2017-Oct-14 05:59N 39°56' W 075°08'0 0.0
2017-Oct-14 05:30N 39°56' W 075°08'0 0.0
2017-Oct-14 05:00N 39°56' W 075°08'0 0.0
2017-Oct-14 04:29N 39°56' W 075°08'0 0.0
2017-Oct-14 03:59N 39°56' W 075°08'0 0.0
2017-Oct-14 03:29N 39°56' W 075°08'0 0.0
2017-Oct-14 02:29N 39°56' W 075°08'0 0.0
2017-Oct-14 01:59N 39°56' W 075°08'0 0.0
2017-Oct-14 01:24N 39°56' W 075°08'0 0.0
2017-Oct-14 00:59N 39°56' W 075°08'0 0.0
2017-Oct-14 00:29N 39°56' W 075°08'0 0.0
2017-Oct-14 00:00N 39°56' W 075°08'0 0.0
2017-Oct-13 23:29N 39°56' W 075°08'0 0.0
2017-Oct-13 22:59N 39°56' W 075°08'0 0.0
2017-Oct-13 22:29N 39°56' W 075°08'0 0.0
2017-Oct-13 21:59N 39°56' W 075°08'0 0.0
2017-Oct-13 21:29N 39°56' W 075°08'0 0.0
2017-Oct-13 20:59N 39°56' W 075°08'0 0.0
2017-Oct-13 20:30N 39°56' W 075°08'0 0.0
2017-Oct-13 20:00N 39°56' W 075°08'0 0.0
2017-Oct-13 19:29N 39°56' W 075°08'0 0.0
2017-Oct-13 18:59N 39°56' W 075°08'0 0.0
2017-Oct-13 18:29N 39°56' W 075°08'0 0.0
2017-Oct-13 17:59N 39°56' W 075°08'0 0.0
2017-Oct-13 17:29N 39°56' W 075°08'0 0.0
2017-Oct-13 16:59N 39°56' W 075°08'0 0.0
2017-Oct-13 16:29N 39°56' W 075°08'0 0.0
2017-Oct-13 15:59N 39°56' W 075°08'0 0.0
2017-Oct-13 15:29N 39°56' W 075°08'0 0.0
2017-Oct-13 14:59N 39°56' W 075°08'0 0.0
2017-Oct-13 14:29N 39°56' W 075°08'0 0.0
2017-Oct-13 13:59N 39°56' W 075°08'0 0.0
2017-Oct-13 13:29N 39°56' W 075°08'0 0.0
2017-Oct-13 12:59N 39°56' W 075°08'0 0.0
2017-Oct-13 12:29N 39°56' W 075°08'0 0.0
2017-Oct-13 11:59N 39°56' W 075°08'0 0.0
2017-Oct-13 11:29N 39°56' W 075°08'0 0.0
2017-Oct-13 10:59N 39°56' W 075°08'0 0.0
2017-Oct-13 10:29N 39°56' W 075°08'0 0.0
2017-Oct-13 09:59N 39°56' W 075°08'0 0.0
2017-Oct-13 09:29N 39°56' W 075°08'0 0.0
2017-Oct-13 08:59N 39°56' W 075°08'0 0.0
2017-Oct-13 08:29N 39°56' W 075°08'0 0.0
2017-Oct-13 07:59N 39°56' W 075°08'0 0.0
2017-Oct-13 07:29N 39°56' W 075°08'0 0.0
2017-Oct-13 06:59N 39°56' W 075°08'0 0.0
2017-Oct-13 06:29N 39°56' W 075°08'0 0.0
2017-Oct-13 05:59N 39°56' W 075°08'0 0.0
2017-Oct-13 05:29N 39°56' W 075°08'0 0.0
2017-Oct-13 04:59N 39°56' W 075°08'0 0.0
2017-Oct-13 04:29N 39°56' W 075°08'0 0.0
2017-Oct-13 03:59N 39°56' W 075°08'0 0.0
2017-Oct-13 03:29N 39°56' W 075°08'0 0.0
2017-Oct-13 02:59N 39°56' W 075°08'0 0.0
2017-Oct-13 02:29N 39°56' W 075°08'0 0.0
2017-Oct-13 01:59N 39°56' W 075°08'0 0.0
2017-Oct-13 01:29N 39°56' W 075°08'0 0.0
2017-Oct-13 00:59N 39°56' W 075°08'0 0.0
2017-Oct-13 00:29N 39°56' W 075°08'0 0.0
2017-Oct-12 23:59N 39°56' W 075°08'0 0.0
2017-Oct-12 23:29N 39°56' W 075°08'0 0.0
2017-Oct-12 22:59N 39°56' W 075°08'0 0.0
2017-Oct-12 22:29N 39°56' W 075°08'0 0.0
2017-Oct-12 21:59N 39°56' W 075°08'0 0.0
2017-Oct-12 21:29N 39°56' W 075°08'0 0.0
2017-Oct-12 20:59N 39°56' W 075°08'0 0.0
2017-Oct-12 20:26N 39°56' W 075°08'0 0.0
2017-Oct-12 19:59N 39°56' W 075°08'0 0.0
2017-Oct-12 19:29N 39°56' W 075°08'0 0.0
2017-Oct-12 18:59N 39°56' W 075°08'0 0.0
2017-Oct-12 18:29N 39°56' W 075°08'0 0.0
2017-Oct-12 17:59N 39°56' W 075°08'0 0.0
2017-Oct-12 17:29N 39°56' W 075°08'0 0.0
2017-Oct-12 16:59N 39°56' W 075°08'0 0.0
2017-Oct-12 16:29N 39°56' W 075°08'0 0.0
2017-Oct-12 15:59N 39°56' W 075°08'0 0.0
2017-Oct-12 15:29N 39°56' W 075°08'0 0.0
2017-Oct-12 14:59N 39°56' W 075°08'0 0.0
2017-Oct-12 14:29N 39°56' W 075°08'0 0.0
2017-Oct-12 13:59N 39°56' W 075°08'0 0.0
2017-Oct-12 13:29N 39°56' W 075°08'0 0.0
2017-Oct-12 12:59N 39°56' W 075°08'0 0.0
2017-Oct-12 12:29N 39°56' W 075°08'0 0.0
2017-Oct-12 11:59N 39°56' W 075°08'0 0.0
2017-Oct-12 11:29N 39°56' W 075°08'0 0.0
2017-Oct-12 10:59N 39°56' W 075°08'0 0.0
2017-Oct-12 10:29N 39°56' W 075°08'0 0.0
2017-Oct-12 09:59N 39°56' W 075°08'0 0.2
2017-Oct-12 09:30N 39°56' W 075°08'2 3.1
2017-Oct-12 09:00N 39°54' W 075°08'4 7.4
2017-Oct-12 08:30N 39°53' W 075°12'1 1.5
2017-Oct-12 07:59N 39°52' W 075°13'0 0.0
2017-Oct-12 07:29N 39°52' W 075°13'0 0.2
2017-Oct-12 06:59N 39°52' W 075°13'0 0.3
2017-Oct-12 06:31N 39°52' W 075°13'0 0.1
2017-Oct-12 06:01N 39°52' W 075°13'0 0.0
2017-Oct-12 05:30N 39°52' W 075°13'0 0.0
2017-Oct-12 05:00N 39°52' W 075°13'0 0.0
2017-Oct-12 04:30N 39°52' W 075°13'0 0.0
2017-Oct-12 04:00N 39°52' W 075°13'0 0.0
2017-Oct-12 03:30N 39°52' W 075°13'0 0.1
2017-Oct-12 03:01N 39°52' W 075°13'0 0.0
2017-Oct-12 02:31N 39°52' W 075°13'0 0.0
2017-Oct-12 02:00N 39°52' W 075°13'0 0.0
2017-Oct-12 01:31N 39°52' W 075°13'0 0.0
2017-Oct-12 01:01N 39°52' W 075°13'0 0.0
2017-Oct-12 00:31N 39°52' W 075°13'0 0.0
2017-Oct-12 00:01N 39°52' W 075°13'0 0.3
2017-Oct-11 23:31N 39°52' W 075°13'0 0.2
2017-Oct-11 23:01N 39°52' W 075°13'0 0.0
2017-Oct-11 22:31N 39°52' W 075°13'0 0.0
2017-Oct-11 22:01N 39°52' W 075°13'0 0.0
2017-Oct-11 21:31N 39°52' W 075°13'0 0.0
2017-Oct-11 21:00N 39°52' W 075°13'0 0.0
2017-Oct-11 20:30N 39°52' W 075°13'0 0.3
2017-Oct-11 20:00N 39°52' W 075°13'2 3.3
2017-Oct-11 19:31N 39°51' W 075°15'4 7.1
2017-Oct-11 19:00N 39°51' W 075°19'510.1
2017-Oct-11 18:30N 39°48' W 075°25'510.8
2017-Oct-11 18:00N 39°45' W 075°30'611.9
2017-Oct-11 17:31N 39°39' W 075°33'510.6
2017-Oct-11 17:00N 39°34' W 075°33'73 4.3
2017-Oct-10 23:58N 38°34' W 074°38'0 0.0
2017-Oct-10 23:28N 38°34' W 074°38'0 0.0
2017-Oct-10 22:58N 38°34' W 074°38'6 3.2
2017-Oct-10 21:08N 38°38' W 074°32'1211.5
2017-Oct-10 20:03N 38°48' W 074°23'2311.3
2017-Oct-10 18:04N 39°08' W 074°09'211.4
2017-Oct-10 17:56N 39°10' W 074°08'511.4
2017-Oct-10 17:27N 39°14' W 074°05'511.5
2017-Oct-10 17:00N 39°19' W 074°02'611.5
2017-Oct-10 16:29N 39°24' W 073°58'611.5
2017-Oct-10 15:59N 39°30' W 073°56'511.6
2017-Oct-10 15:30N 39°35' W 073°55'611.7
2017-Oct-10 15:00N 39°41' W 073°53'1211.6
2017-Oct-10 13:57N 39°53' W 073°51'611.4
2017-Oct-10 13:25N 39°59' W 073°51'511.1
2017-Oct-10 12:58N 40°04' W 073°50'511.1
2017-Oct-10 12:29N 40°09' W 073°50'611.2
2017-Oct-10 11:59N 40°15' W 073°49'511.3
2017-Oct-10 11:30N 40°20' W 073°49'611.4
2017-Oct-10 11:00N 40°26' W 073°49'610.9
2017-Oct-10 10:30N 40°29' W 073°55'713.8
2017-Oct-10 10:00N 40°34' W 074°02'5 8.6
2017-Oct-10 09:28N 40°38' W 074°04'0 0.1
2017-Oct-10 08:58N 40°38' W 074°04'0 0.0
2017-Oct-10 08:28N 40°38' W 074°04'0 0.0
2017-Oct-10 07:58N 40°38' W 074°04'0 0.0
2017-Oct-10 07:28N 40°38' W 074°04'0 0.0
2017-Oct-10 06:58N 40°38' W 074°04'0 0.1
2017-Oct-10 06:28N 40°38' W 074°04'0 0.1
2017-Oct-10 05:58N 40°38' W 074°04'0 0.2
2017-Oct-10 05:28N 40°38' W 074°04'0 0.2
2017-Oct-10 04:58N 40°38' W 074°04'0 0.1
2017-Oct-10 04:28N 40°38' W 074°04'0 0.1
2017-Oct-10 03:58N 40°38' W 074°04'0 0.1
2017-Oct-10 03:28N 40°38' W 074°04'0 0.0
2017-Oct-10 02:58N 40°38' W 074°04'0 0.0
2017-Oct-10 02:28N 40°38' W 074°04'0 0.0
2017-Oct-10 01:58N 40°38' W 074°04'0 0.0
2017-Oct-10 01:28N 40°38' W 074°04'0 0.0
2017-Oct-10 00:58N 40°38' W 074°04'0 0.1
2017-Oct-10 00:28N 40°38' W 074°04'0 0.2
2017-Oct-09 23:58N 40°38' W 074°04'0 0.8
2017-Oct-09 23:30N 40°38' W 074°04'2 4.9
2017-Oct-09 23:00N 40°41' W 074°02'611.9
2017-Oct-09 22:30N 40°46' W 074°00'713.2
2017-Oct-09 22:00N 40°52' W 073°56'510.0
2017-Oct-09 21:30N 40°57' W 073°54'  
Track history (hours):
 
Tides and Currents Weather Stations Pressure Air Temp Water Temp Dewpoint Dewpoint Depression Visibility Wind Speed Wind Dir Waves Ship Positions

Pollux Star

Last reported at 2017-Oct-16 09:44 UTC. Time now 2017-Oct-17 08:17 UTC.
Position N 38°50' W 075°05'.

Length 190 m; draft 11.3 m.

Type: Cargo ship. MMSI: 357955000.

Date/timePositionNaut miles runAvg speedWind from/ knotsBaromVisibWave heightAir tempDewpointWater temp
2017-Oct-16 09:44N 38°50' W 075°05'1 6.0
2017-Oct-16 09:30N 38°52' W 075°05'5 9.3
2017-Oct-16 09:01N 38°56' W 075°06'5 9.2
2017-Oct-16 08:31N 39°00' W 075°09'5 9.4
2017-Oct-16 08:00N 39°05' W 075°11'4 8.5
2017-Oct-16 07:30N 39°08' W 075°14'5 9.6
2017-Oct-16 07:00N 39°12' W 075°17'510.7
2017-Oct-16 06:30N 39°17' W 075°21'612.2
2017-Oct-16 06:01N 39°21' W 075°26'611.8
2017-Oct-16 05:30N 39°26' W 075°32'510.3
2017-Oct-16 05:01N 39°31' W 075°33'510.3
2017-Oct-16 04:30N 39°36' W 075°34'5 9.2
2017-Oct-16 04:01N 39°40' W 075°32'510.0
2017-Oct-16 03:30N 39°45' W 075°30'5 9.2
2017-Oct-16 03:00N 39°48' W 075°26'4 8.0
2017-Oct-16 02:30N 39°50' W 075°21'4 7.7
2017-Oct-16 02:01N 39°51' W 075°16'3 6.2
2017-Oct-16 01:31N 39°52' W 075°13'3 6.8
2017-Oct-16 01:01N 39°53' W 075°08'3 5.3
2017-Oct-16 00:31N 39°56' W 075°08'0 0.6
2017-Oct-16 00:00N 39°56' W 075°08'0 0.0
2017-Oct-15 23:30N 39°56' W 075°08'0 0.0
2017-Oct-15 23:00N 39°56' W 075°08'0 0.0
2017-Oct-15 22:30N 39°56' W 075°08'0 0.0
2017-Oct-15 22:00N 39°56' W 075°08'0 0.0
2017-Oct-15 21:30N 39°56' W 075°08'0 0.0
2017-Oct-15 21:00N 39°56' W 075°08'0 0.0
2017-Oct-15 20:30N 39°56' W 075°08'0 0.0
2017-Oct-15 20:00N 39°56' W 075°08'0 0.0
2017-Oct-15 19:30N 39°56' W 075°08'0 0.0
2017-Oct-15 19:00N 39°56' W 075°08'0 0.0
2017-Oct-15 18:30N 39°56' W 075°08'0 0.0
2017-Oct-15 18:00N 39°56' W 075°08'0 0.0
2017-Oct-15 17:27N 39°56' W 075°08'0 0.0
2017-Oct-15 17:00N 39°56' W 075°08'0 0.0
2017-Oct-15 16:30N 39°56' W 075°08'0 0.0
2017-Oct-15 16:00N 39°56' W 075°08'0 0.0
2017-Oct-15 15:30N 39°56' W 075°08'0 0.0
2017-Oct-15 15:00N 39°56' W 075°08'0 0.0
2017-Oct-15 14:00N 39°56' W 075°08'0 0.0
2017-Oct-15 13:30N 39°56' W 075°08'0 0.0
2017-Oct-15 13:00N 39°56' W 075°08'0 0.0
2017-Oct-15 12:30N 39°56' W 075°08'0 0.0
2017-Oct-15 12:00N 39°56' W 075°08'0 0.0
2017-Oct-15 11:30N 39°56' W 075°08'0 0.0
2017-Oct-15 11:00N 39°56' W 075°08'0 0.0
2017-Oct-15 10:30N 39°56' W 075°08'0 0.0
2017-Oct-15 10:00N 39°56' W 075°08'0 0.0
2017-Oct-15 09:30N 39°56' W 075°08'0 0.0
2017-Oct-15 09:00N 39°56' W 075°08'0 0.0
2017-Oct-15 08:30N 39°56' W 075°08'0 0.0
2017-Oct-15 08:00N 39°56' W 075°08'0 0.0
2017-Oct-15 07:30N 39°56' W 075°08'0 0.0
2017-Oct-15 07:00N 39°56' W 075°08'0 0.0
2017-Oct-15 06:30N 39°56' W 075°08'0 0.0
2017-Oct-15 06:00N 39°56' W 075°08'0 0.0
2017-Oct-15 05:30N 39°56' W 075°08'0 0.0
2017-Oct-15 05:00N 39°56' W 075°08'0 0.0
2017-Oct-15 04:30N 39°56' W 075°08'0 0.0
2017-Oct-15 04:00N 39°56' W 075°08'0 0.0
2017-Oct-15 03:30N 39°56' W 075°08'0 0.0
2017-Oct-15 03:00N 39°56' W 075°08'0 0.0
2017-Oct-15 02:30N 39°56' W 075°08'0 0.0
2017-Oct-15 02:00N 39°56' W 075°08'0 0.0
2017-Oct-15 01:30N 39°56' W 075°08'0 0.0
2017-Oct-15 01:00N 39°56' W 075°08'0 0.0
2017-Oct-15 00:30N 39°56' W 075°08'0 0.0
2017-Oct-15 00:00N 39°56' W 075°08'0 0.0
2017-Oct-14 23:30N 39°56' W 075°08'0 0.0
2017-Oct-14 23:00N 39°56' W 075°08'0 0.0
2017-Oct-14 22:30N 39°56' W 075°08'0 0.0
2017-Oct-14 21:59N 39°56' W 075°08'0 0.0
2017-Oct-14 21:29N 39°56' W 075°08'0 0.0
2017-Oct-14 21:00N 39°56' W 075°08'0 0.0
2017-Oct-14 20:30N 39°56' W 075°08'0 0.0
2017-Oct-14 20:00N 39°56' W 075°08'0 0.0
2017-Oct-14 19:30N 39°56' W 075°08'0 0.0
2017-Oct-14 19:00N 39°56' W 075°08'0 0.0
2017-Oct-14 18:30N 39°56' W 075°08'0 0.0
2017-Oct-14 18:00N 39°56' W 075°08'0 0.0
2017-Oct-14 17:30N 39°56' W 075°08'0 0.0
2017-Oct-14 17:00N 39°56' W 075°08'0 0.0
2017-Oct-14 16:29N 39°56' W 075°08'0 0.0
2017-Oct-14 15:59N 39°56' W 075°08'0 0.0
2017-Oct-14 15:29N 39°56' W 075°08'0 0.0
2017-Oct-14 15:00N 39°56' W 075°08'0 0.0
2017-Oct-14 14:30N 39°56' W 075°08'0 0.0
2017-Oct-14 13:56N 39°56' W 075°08'0 0.0
2017-Oct-14 13:30N 39°56' W 075°08'0 0.0
2017-Oct-14 13:00N 39°56' W 075°08'0 0.0
2017-Oct-14 12:29N 39°56' W 075°08'0 0.0
2017-Oct-14 12:00N 39°56' W 075°08'0 0.0
2017-Oct-14 11:29N 39°56' W 075°08'0 0.0
2017-Oct-14 11:00N 39°56' W 075°08'0 0.0
2017-Oct-14 10:30N 39°56' W 075°08'0 0.0
2017-Oct-14 10:00N 39°56' W 075°08'0 0.0
2017-Oct-14 09:29N 39°56' W 075°08'0 0.0
2017-Oct-14 08:59N 39°56' W 075°08'0 0.0
2017-Oct-14 08:29N 39°56' W 075°08'0 0.0
2017-Oct-14 08:00N 39°56' W 075°08'0 0.0
2017-Oct-14 07:29N 39°56' W 075°08'0 0.0
2017-Oct-14 07:00N 39°56' W 075°08'0 0.0
2017-Oct-14 06:29N 39°56' W 075°08'0 0.0
2017-Oct-14 05:59N 39°56' W 075°08'0 0.0
2017-Oct-14 05:30N 39°56' W 075°08'0 0.0
2017-Oct-14 05:00N 39°56' W 075°08'0 0.0
2017-Oct-14 04:29N 39°56' W 075°08'0 0.0
2017-Oct-14 03:59N 39°56' W 075°08'0 0.0
2017-Oct-14 03:29N 39°56' W 075°08'0 0.0
2017-Oct-14 02:29N 39°56' W 075°08'0 0.0
2017-Oct-14 01:59N 39°56' W 075°08'0 0.0
2017-Oct-14 01:24N 39°56' W 075°08'0 0.0
2017-Oct-14 00:59N 39°56' W 075°08'0 0.0
2017-Oct-14 00:29N 39°56' W 075°08'0 0.0
2017-Oct-14 00:00N 39°56' W 075°08'0 0.0
2017-Oct-13 23:29N 39°56' W 075°08'0 0.0
2017-Oct-13 22:59N 39°56' W 075°08'0 0.0
2017-Oct-13 22:29N 39°56' W 075°08'0 0.0
2017-Oct-13 21:59N 39°56' W 075°08'0 0.0
2017-Oct-13 21:29N 39°56' W 075°08'0 0.0
2017-Oct-13 20:59N 39°56' W 075°08'0 0.0
2017-Oct-13 20:30N 39°56' W 075°08'0 0.0
2017-Oct-13 20:00N 39°56' W 075°08'0 0.0
2017-Oct-13 19:29N 39°56' W 075°08'0 0.0
2017-Oct-13 18:59N 39°56' W 075°08'0 0.0
2017-Oct-13 18:29N 39°56' W 075°08'0 0.0
2017-Oct-13 17:59N 39°56' W 075°08'0 0.0
2017-Oct-13 17:29N 39°56' W 075°08'0 0.0
2017-Oct-13 16:59N 39°56' W 075°08'0 0.0
2017-Oct-13 16:29N 39°56' W 075°08'0 0.0
2017-Oct-13 15:59N 39°56' W 075°08'0 0.0
2017-Oct-13 15:29N 39°56' W 075°08'0 0.0
2017-Oct-13 14:59N 39°56' W 075°08'0 0.0
2017-Oct-13 14:29N 39°56' W 075°08'0 0.0
2017-Oct-13 13:59N 39°56' W 075°08'0 0.0
2017-Oct-13 13:29N 39°56' W 075°08'0 0.0
2017-Oct-13 12:59N 39°56' W 075°08'0 0.0
2017-Oct-13 12:29N 39°56' W 075°08'0 0.0
2017-Oct-13 11:59N 39°56' W 075°08'0 0.0
2017-Oct-13 11:29N 39°56' W 075°08'0 0.0
2017-Oct-13 10:59N 39°56' W 075°08'0 0.0
2017-Oct-13 10:29N 39°56' W 075°08'0 0.0
2017-Oct-13 09:59N 39°56' W 075°08'0 0.0
2017-Oct-13 09:29N 39°56' W 075°08'0 0.0
2017-Oct-13 08:59N 39°56' W 075°08'0 0.0
2017-Oct-13 08:29N 39°56' W 075°08'0 0.0
2017-Oct-13 07:59N 39°56' W 075°08'0 0.0
2017-Oct-13 07:29N 39°56' W 075°08'0 0.0
2017-Oct-13 06:59N 39°56' W 075°08'0 0.0
2017-Oct-13 06:29N 39°56' W 075°08'0 0.0
2017-Oct-13 05:59N 39°56' W 075°08'0 0.0
2017-Oct-13 05:29N 39°56' W 075°08'0 0.0
2017-Oct-13 04:59N 39°56' W 075°08'0 0.0
2017-Oct-13 04:29N 39°56' W 075°08'0 0.0
2017-Oct-13 03:59N 39°56' W 075°08'0 0.0
2017-Oct-13 03:29N 39°56' W 075°08'0 0.0
2017-Oct-13 02:59N 39°56' W 075°08'0 0.0
2017-Oct-13 02:29N 39°56' W 075°08'0 0.0
2017-Oct-13 01:59N 39°56' W 075°08'0 0.0
2017-Oct-13 01:29N 39°56' W 075°08'0 0.0
2017-Oct-13 00:59N 39°56' W 075°08'0 0.0
2017-Oct-13 00:29N 39°56' W 075°08'0 0.0
2017-Oct-12 23:59N 39°56' W 075°08'0 0.0
2017-Oct-12 23:29N 39°56' W 075°08'0 0.0
2017-Oct-12 22:59N 39°56' W 075°08'0 0.0
2017-Oct-12 22:29N 39°56' W 075°08'0 0.0
2017-Oct-12 21:59N 39°56' W 075°08'0 0.0
2017-Oct-12 21:29N 39°56' W 075°08'0 0.0
2017-Oct-12 20:59N 39°56' W 075°08'0 0.0
2017-Oct-12 20:26N 39°56' W 075°08'0 0.0
2017-Oct-12 19:59N 39°56' W 075°08'0 0.0
2017-Oct-12 19:29N 39°56' W 075°08'0 0.0
2017-Oct-12 18:59N 39°56' W 075°08'0 0.0
2017-Oct-12 18:29N 39°56' W 075°08'0 0.0
2017-Oct-12 17:59N 39°56' W 075°08'0 0.0
2017-Oct-12 17:29N 39°56' W 075°08'0 0.0
2017-Oct-12 16:59N 39°56' W 075°08'0 0.0
2017-Oct-12 16:29N 39°56' W 075°08'0 0.0
2017-Oct-12 15:59N 39°56' W 075°08'0 0.0
2017-Oct-12 15:29N 39°56' W 075°08'0 0.0
2017-Oct-12 14:59N 39°56' W 075°08'0 0.0
2017-Oct-12 14:29N 39°56' W 075°08'0 0.0
2017-Oct-12 13:59N 39°56' W 075°08'0 0.0
2017-Oct-12 13:29N 39°56' W 075°08'0 0.0
2017-Oct-12 12:59N 39°56' W 075°08'0 0.0
2017-Oct-12 12:29N 39°56' W 075°08'0 0.0
2017-Oct-12 11:59N 39°56' W 075°08'0 0.0
2017-Oct-12 11:29N 39°56' W 075°08'0 0.0
2017-Oct-12 10:59N 39°56' W 075°08'0 0.0
2017-Oct-12 10:29N 39°56' W 075°08'0 0.0
2017-Oct-12 09:59N 39°56' W 075°08'0 0.2
2017-Oct-12 09:30N 39°56' W 075°08'2 3.1
2017-Oct-12 09:00N 39°54' W 075°08'4 7.4
2017-Oct-12 08:30N 39°53' W 075°12'1 1.5
2017-Oct-12 07:59N 39°52' W 075°13'0 0.0
2017-Oct-12 07:29N 39°52' W 075°13'0 0.2
2017-Oct-12 06:59N 39°52' W 075°13'0 0.3
2017-Oct-12 06:31N 39°52' W 075°13'0 0.1
2017-Oct-12 06:01N 39°52' W 075°13'0 0.0
2017-Oct-12 05:30N 39°52' W 075°13'0 0.0
2017-Oct-12 05:00N 39°52' W 075°13'0 0.0
2017-Oct-12 04:30N 39°52' W 075°13'0 0.0
2017-Oct-12 04:00N 39°52' W 075°13'0 0.0
2017-Oct-12 03:30N 39°52' W 075°13'0 0.1
2017-Oct-12 03:01N 39°52' W 075°13'0 0.0
2017-Oct-12 02:31N 39°52' W 075°13'0 0.0
2017-Oct-12 02:00N 39°52' W 075°13'0 0.0
2017-Oct-12 01:31N 39°52' W 075°13'0 0.0
2017-Oct-12 01:01N 39°52' W 075°13'0 0.0
2017-Oct-12 00:31N 39°52' W 075°13'0 0.0
2017-Oct-12 00:01N 39°52' W 075°13'0 0.3
2017-Oct-11 23:31N 39°52' W 075°13'0 0.2
2017-Oct-11 23:01N 39°52' W 075°13'0 0.0
2017-Oct-11 22:31N 39°52' W 075°13'0 0.0
2017-Oct-11 22:01N 39°52' W 075°13'0 0.0
2017-Oct-11 21:31N 39°52' W 075°13'0 0.0
2017-Oct-11 21:00N 39°52' W 075°13'0 0.0
2017-Oct-11 20:30N 39°52' W 075°13'0 0.3
2017-Oct-11 20:00N 39°52' W 075°13'2 3.3
2017-Oct-11 19:31N 39°51' W 075°15'4 7.1
2017-Oct-11 19:00N 39°51' W 075°19'510.1
2017-Oct-11 18:30N 39°48' W 075°25'510.8
2017-Oct-11 18:00N 39°45' W 075°30'611.9
2017-Oct-11 17:31N 39°39' W 075°33'510.6
2017-Oct-11 17:00N 39°34' W 075°33'73 4.3
2017-Oct-10 23:58N 38°34' W 074°38'0 0.0
2017-Oct-10 23:28N 38°34' W 074°38'0 0.0
2017-Oct-10 22:58N 38°34' W 074°38'6 3.2
2017-Oct-10 21:08N 38°38' W 074°32'1211.5
2017-Oct-10 20:03N 38°48' W 074°23'2311.3
2017-Oct-10 18:04N 39°08' W 074°09'211.4
2017-Oct-10 17:56N 39°10' W 074°08'511.4
2017-Oct-10 17:27N 39°14' W 074°05'511.5
2017-Oct-10 17:00N 39°19' W 074°02'611.5
2017-Oct-10 16:29N 39°24' W 073°58'611.5
2017-Oct-10 15:59N 39°30' W 073°56'511.6
2017-Oct-10 15:30N 39°35' W 073°55'611.7
2017-Oct-10 15:00N 39°41' W 073°53'1211.6
2017-Oct-10 13:57N 39°53' W 073°51'611.4
2017-Oct-10 13:25N 39°59' W 073°51'511.1
2017-Oct-10 12:58N 40°04' W 073°50'511.1
2017-Oct-10 12:29N 40°09' W 073°50'611.2
2017-Oct-10 11:59N 40°15' W 073°49'511.3
2017-Oct-10 11:30N 40°20' W 073°49'611.4
2017-Oct-10 11:00N 40°26' W 073°49'610.9
2017-Oct-10 10:30N 40°29' W 073°55'713.8
2017-Oct-10 10:00N 40°34' W 074°02'5 8.6
2017-Oct-10 09:28N 40°38' W 074°04'0 0.1
2017-Oct-10 08:58N 40°38' W 074°04'0 0.0
2017-Oct-10 08:28N 40°38' W 074°04'0 0.0
2017-Oct-10 07:58N 40°38' W 074°04'0 0.0
2017-Oct-10 07:28N 40°38' W 074°04'0 0.0
2017-Oct-10 06:58N 40°38' W 074°04'0 0.1
2017-Oct-10 06:28N 40°38' W 074°04'0 0.1
2017-Oct-10 05:58N 40°38' W 074°04'0 0.2
2017-Oct-10 05:28N 40°38' W 074°04'0 0.2
2017-Oct-10 04:58N 40°38' W 074°04'0 0.1
2017-Oct-10 04:28N 40°38' W 074°04'0 0.1
2017-Oct-10 03:58N 40°38' W 074°04'0 0.1
2017-Oct-10 03:28N 40°38' W 074°04'0 0.0
2017-Oct-10 02:58N 40°38' W 074°04'0 0.0
2017-Oct-10 02:28N 40°38' W 074°04'0 0.0
2017-Oct-10 01:58N 40°38' W 074°04'0 0.0
2017-Oct-10 01:28N 40°38' W 074°04'0 0.0
2017-Oct-10 00:58N 40°38' W 074°04'0 0.1
2017-Oct-10 00:28N 40°38' W 074°04'0 0.2
2017-Oct-09 23:58N 40°38' W 074°04'0 0.8
2017-Oct-09 23:30N 40°38' W 074°04'2 4.9
2017-Oct-09 23:00N 40°41' W 074°02'611.9
2017-Oct-09 22:30N 40°46' W 074°00'713.2
2017-Oct-09 22:00N 40°52' W 073°56'510.0
2017-Oct-09 21:30N 40°57' W 073°54'  

Dump ship's entire track history